createdAt,value
2023-03-10T00:04:02.325Z,100.00
2023-03-10T00:09:06.407Z,100.00
2023-03-10T00:14:11.850Z,100.00
2023-03-10T00:19:16.374Z,100.00
2023-03-10T00:24:20.864Z,100.00
2023-03-10T00:29:26.333Z,100.00
2023-03-10T00:34:31.146Z,100.00
2023-03-10T00:39:35.045Z,100.00
2023-03-10T00:44:42.502Z,100.00
2023-03-10T00:49:46.393Z,100.00
2023-03-10T00:54:51.625Z,100.00
2023-03-10T00:59:56.876Z,100.00
2023-03-10T01:05:01.052Z,100.00
2023-03-10T01:10:05.765Z,100.00
2023-03-10T01:15:13.134Z,100.00
2023-03-10T01:20:18.969Z,100.00
2023-03-10T01:25:23.084Z,100.00
2023-03-10T01:30:28.697Z,100.00
2023-03-10T01:35:32.878Z,100.00
2023-03-10T01:40:37.660Z,100.00
2023-03-10T01:46:30.286Z,100.00
2023-03-10T01:51:40.748Z,100.00
2023-03-10T01:56:45.291Z,100.00
2023-03-10T02:01:51.811Z,100.00
2023-03-10T02:06:58.950Z,100.00
2023-03-10T02:12:04.683Z,100.00
2023-03-10T02:17:13.936Z,100.00
2023-03-10T02:22:19.687Z,100.00
2023-03-10T02:27:27.393Z,100.00
2023-03-10T02:32:34.417Z,100.00
2023-03-10T02:37:38.808Z,100.00
2023-03-10T02:42:44.377Z,100.00
2023-03-10T02:47:48.432Z,100.00
2023-03-10T02:52:57.017Z,100.00
2023-03-10T02:58:03.801Z,100.00
2023-03-10T03:03:08.387Z,100.00
2023-03-10T03:08:12.716Z,100.00
2023-03-10T03:13:18.187Z,100.00
2023-03-10T03:18:22.561Z,100.00
2023-03-10T03:23:27.168Z,100.00
2023-03-10T03:28:32.799Z,100.00
2023-03-10T03:33:37.693Z,100.00
2023-03-10T03:38:41.763Z,100.00
2023-03-10T03:43:47.271Z,100.00
2023-03-10T03:48:51.657Z,100.00
2023-03-10T03:53:55.963Z,100.00
2023-03-10T03:59:01.946Z,100.00
2023-03-10T04:04:06.672Z,100.00
2023-03-10T04:09:11.304Z,100.00
2023-03-10T04:14:17.651Z,100.00
2023-03-10T04:19:21.866Z,100.00
2023-03-10T04:24:29.890Z,100.00
2023-03-10T04:29:35.943Z,100.00
2023-03-10T04:34:40.664Z,100.00
2023-03-10T04:39:45.089Z,100.00
2023-03-10T04:44:52.088Z,100.00
2023-03-10T04:49:56.492Z,100.00
2023-03-10T04:55:00.618Z,100.00
2023-03-10T05:00:08.224Z,100.00
2023-03-10T05:05:13.214Z,100.00
2023-03-10T05:10:21.219Z,100.00
2023-03-10T05:15:26.927Z,100.00
2023-03-10T05:20:31.090Z,100.00
2023-03-10T05:25:37.380Z,100.00
2023-03-10T05:30:42.918Z,100.00
2023-03-10T05:35:47.338Z,100.00
2023-03-10T05:40:51.527Z,100.00
2023-03-10T05:45:59.519Z,100.00
2023-03-10T05:51:09.040Z,100.00
2023-03-10T05:56:16.188Z,100.00
2023-03-10T06:01:22.890Z,100.00
2023-03-10T06:06:26.951Z,100.00
2023-03-10T06:11:31.108Z,100.00
2023-03-10T06:16:36.429Z,100.00
2023-03-10T06:21:40.491Z,100.00
2023-03-10T06:26:44.981Z,100.00
2023-03-10T06:31:50.428Z,100.00
2023-03-10T06:36:56.006Z,100.00
2023-03-10T06:42:01.493Z,100.00
2023-03-10T06:47:07.342Z,100.00
2023-03-10T06:52:11.234Z,100.00
2023-03-10T06:57:15.105Z,100.00
2023-03-10T07:02:20.808Z,100.00
2023-03-10T07:07:24.941Z,100.00
2023-03-10T07:12:28.888Z,100.00
2023-03-10T07:17:34.678Z,100.00
2023-03-10T07:22:38.869Z,100.00
2023-03-10T07:27:43.573Z,100.00
2023-03-10T07:32:48.867Z,100.00
2023-03-10T07:37:52.972Z,100.00
2023-03-10T07:42:56.887Z,100.00
2023-03-10T07:48:04.852Z,100.00
2023-03-10T07:53:08.720Z,100.00
2023-03-10T07:58:12.620Z,100.00
2023-03-10T08:03:18.241Z,100.00
2023-03-10T08:08:23.317Z,100.00
2023-03-10T08:13:27.471Z,100.00
2023-03-10T08:18:32.866Z,100.00
2023-03-10T08:23:37.981Z,100.00
2023-03-10T08:28:42.924Z,100.00
2023-03-10T08:33:49.120Z,100.00
2023-03-10T08:38:54.469Z,100.00
2023-03-10T08:43:59.890Z,94.92
2023-03-10T08:49:05.143Z,92.82
2023-03-10T08:54:10.116Z,88.51
2023-03-10T08:59:14.440Z,86.31
2023-03-10T09:04:20.314Z,85.70
2023-03-10T09:09:24.198Z,86.71
2023-03-10T09:14:28.349Z,81.66
2023-03-10T09:19:33.920Z,82.06
2023-03-10T09:24:37.998Z,80.23
2023-03-10T09:29:43.590Z,79.55
2023-03-10T09:34:49.421Z,81.75
2023-03-10T09:39:53.616Z,82.75
2023-03-10T09:45:05.196Z,79.11
2023-03-10T09:50:23.895Z,78.83
2023-03-10T09:55:30.334Z,80.98
2023-03-10T10:00:39.685Z,77.79
2023-03-10T10:05:46.795Z,81.31
2023-03-10T10:10:53.802Z,75.80
2023-03-10T10:16:21.443Z,78.44
2023-03-10T10:21:41.719Z,78.34
2023-03-10T10:26:46.306Z,76.48
2023-03-10T10:32:08.889Z,79.03
2023-03-10T10:37:28.413Z,79.25
2023-03-10T10:42:35.235Z,77.93
2023-03-10T10:47:49.220Z,75.99
2023-03-10T10:53:16.971Z,72.24
2023-03-10T10:58:28.447Z,70.34
2023-03-10T11:03:34.949Z,68.76
2023-03-10T11:08:42.973Z,70.16
2023-03-10T11:14:01.448Z,70.42
2023-03-10T11:19:09.874Z,70.77
2023-03-10T11:24:21.650Z,68.25
2023-03-10T11:29:35.165Z,68.17
2023-03-10T11:34:43.134Z,68.69
2023-03-10T11:39:54.224Z,69.33
2023-03-10T11:45:05.434Z,68.53
2023-03-10T11:50:18.206Z,68.33
2023-03-10T11:55:23.997Z,66.88
2023-03-10T12:00:31.620Z,67.55
2023-03-10T12:05:43.793Z,65.61
2023-03-10T12:10:50.693Z,63.16
2023-03-10T12:15:59.782Z,61.83
2023-03-10T12:21:15.477Z,60.15
2023-03-10T12:26:55.449Z,59.42
2023-03-10T12:32:01.358Z,58.64
2023-03-10T12:37:08.926Z,58.06
2023-03-10T12:42:30.700Z,57.50
2023-03-10T12:47:48.139Z,58.40
2023-03-10T12:53:00.216Z,57.71
2023-03-10T12:58:09.780Z,58.63
2023-03-10T13:03:25.782Z,59.89
2023-03-10T13:08:35.935Z,60.04
2023-03-10T13:13:41.056Z,61.18
2023-03-10T13:18:49.709Z,61.84
2023-03-10T13:23:53.633Z,62.25
2023-03-10T13:28:59.377Z,61.58
2023-03-10T13:34:15.353Z,60.29
2023-03-10T13:39:24.647Z,59.61
2023-03-10T13:44:33.594Z,60.23
2023-03-10T13:49:39.321Z,59.16
2023-03-10T13:54:44.018Z,59.60
2023-03-10T13:59:48.598Z,59.61
2023-03-10T14:04:55.719Z,58.84
2023-03-10T14:10:15.090Z,58.29
2023-03-10T14:15:24.576Z,59.48
2023-03-10T14:20:31.346Z,59.76
2023-03-10T14:25:35.377Z,60.71
2023-03-10T14:30:40.327Z,59.26
2023-03-10T14:35:46.622Z,60.20
2023-03-10T14:40:53.227Z,61.22
2023-03-10T14:45:58.655Z,62.34
2023-03-10T14:51:06.299Z,63.49
2023-03-10T14:56:14.954Z,65.12
2023-03-10T15:01:20.497Z,65.96
2023-03-10T15:06:25.950Z,66.39
2023-03-10T15:11:36.885Z,67.36
2023-03-10T15:16:41.356Z,67.62
2023-03-10T15:21:46.909Z,68.56
2023-03-10T15:26:51.585Z,69.47
2023-03-10T15:31:55.410Z,70.11
2023-03-10T15:37:01.133Z,71.64
2023-03-10T15:42:05.236Z,73.53
2023-03-10T15:47:09.106Z,73.83
2023-03-10T15:52:14.898Z,73.99
2023-03-10T15:57:18.788Z,73.54
2023-03-10T16:02:23.007Z,72.83
2023-03-10T16:07:28.280Z,74.13
2023-03-10T16:12:32.220Z,74.18
2023-03-10T16:17:36.509Z,74.07
2023-03-10T16:22:43.248Z,75.68
2023-03-10T16:27:48.074Z,77.90
2023-03-10T16:32:52.065Z,78.28
2023-03-10T16:37:57.301Z,79.88
2023-03-10T16:43:01.466Z,81.91
2023-03-10T16:48:05.873Z,85.55
2023-03-10T16:53:11.125Z,86.55
2023-03-10T16:58:14.976Z,89.29
2023-03-10T17:03:19.027Z,92.60
2023-03-10T17:08:24.505Z,93.93
2023-03-10T17:13:29.071Z,96.04
2023-03-10T17:18:32.964Z,99.16
2023-03-10T17:23:38.365Z,98.78
2023-03-10T17:28:43.584Z,100.00
2023-03-10T17:33:47.847Z,100.00
2023-03-10T17:38:54.942Z,100.00
2023-03-10T17:43:59.614Z,100.00
2023-03-10T17:49:03.523Z,100.00
2023-03-10T17:54:08.923Z,100.00
2023-03-10T17:59:14.264Z,100.00
2023-03-10T18:04:18.353Z,100.00
2023-03-10T18:09:23.749Z,100.00
2023-03-10T18:14:27.985Z,100.00
2023-03-10T18:19:32.152Z,100.00
2023-03-10T18:24:39.146Z,100.00
2023-03-10T18:29:43.416Z,100.00
2023-03-10T18:34:47.418Z,100.00
2023-03-10T18:39:53.245Z,100.00
2023-03-10T18:44:57.574Z,100.00
2023-03-10T18:50:01.700Z,100.00
2023-03-10T18:55:07.885Z,100.00
2023-03-10T19:00:14.824Z,100.00
2023-03-10T19:05:19.256Z,100.00
2023-03-10T19:10:24.686Z,100.00
2023-03-10T19:15:28.559Z,100.00
2023-03-10T19:20:32.480Z,100.00
2023-03-10T19:25:37.786Z,100.00
2023-03-10T19:30:43.912Z,100.00
2023-03-10T19:35:48.036Z,100.00
2023-03-10T19:40:53.785Z,100.00
2023-03-10T19:46:02.211Z,100.00
2023-03-10T19:51:07.307Z,100.00
2023-03-10T19:56:12.590Z,100.00
2023-03-10T20:01:17.850Z,100.00
2023-03-10T20:06:22.520Z,100.00
2023-03-10T20:11:27.774Z,100.00
2023-03-10T20:16:32.792Z,100.00
2023-03-10T20:21:36.980Z,100.00
2023-03-10T20:26:42.184Z,100.00
2023-03-10T20:31:46.424Z,100.00
2023-03-10T20:36:50.352Z,100.00
2023-03-10T20:41:55.792Z,100.00
2023-03-10T20:47:00.394Z,100.00
2023-03-10T20:52:04.964Z,100.00
2023-03-10T20:57:10.207Z,100.00
2023-03-10T21:02:15.893Z,100.00
2023-03-10T21:07:20.243Z,100.00
2023-03-10T21:12:25.488Z,100.00
2023-03-10T21:17:29.368Z,100.00
2023-03-10T21:22:35.339Z,100.00
2023-03-10T21:27:40.644Z,100.00
2023-03-10T21:32:44.845Z,100.00
2023-03-10T21:37:49.480Z,100.00
2023-03-10T21:42:54.697Z,100.00
2023-03-10T21:47:58.781Z,100.00
2023-03-10T21:53:02.732Z,100.00
2023-03-10T21:58:08.228Z,100.00
2023-03-10T22:03:12.098Z,100.00
2023-03-10T22:08:16.000Z,100.00
2023-03-10T22:13:21.443Z,100.00
2023-03-10T22:18:25.530Z,100.00
2023-03-10T22:23:29.686Z,100.00
2023-03-10T22:28:35.017Z,100.00
2023-03-10T22:33:39.179Z,100.00
2023-03-10T22:38:43.039Z,100.00
2023-03-10T22:43:48.464Z,100.00
2023-03-10T22:48:52.913Z,100.00
2023-03-10T22:53:57.110Z,100.00
2023-03-10T22:59:04.113Z,100.00
2023-03-10T23:04:08.098Z,100.00
2023-03-10T23:09:12.204Z,100.00
2023-03-10T23:14:17.814Z,100.00
2023-03-10T23:19:22.080Z,100.00
2023-03-10T23:24:26.193Z,100.00
2023-03-10T23:29:31.423Z,100.00
2023-03-10T23:34:35.438Z,100.00
2023-03-10T23:39:39.528Z,100.00
2023-03-10T23:44:45.295Z,100.00
2023-03-10T23:49:49.718Z,100.00
2023-03-10T23:54:53.995Z,100.00
2023-03-10T23:59:59.616Z,100.00
